Time;durP1;ratioP1;P1;durP2;ratioP2;P2;SDS_P1;SDS_P2;PMS_P1;PMS_P2;Temp;Humidity;BMP_temperature;BMP_pressure;BME280_temperature;BME280_humidity;BME280_pressure;Samples;Min_cycle;Max_cycle;Signal;HPM_P1;HPM_P2
2021/10/22 00:01:00;;;;;;;52.83;29.90;;;;;;;;;;4434300;32;20302;-54
2021/10/22 00:03:25;;;;;;;52.30;29.67;;;;;;;;;;4435041;32;20547;-54
2021/10/22 00:05:51;;;;;;;55.57;31.97;;;;;;;;;;4434855;32;20310;-54
2021/10/22 00:08:16;;;;;;;62.43;33.57;;;;;;;;;;4434905;32;20344;-54
2021/10/22 00:10:42;;;;;;;54.43;29.80;;;;;;;;;;4443667;32;20687;-54
2021/10/22 00:13:09;;;;;;;52.93;30.03;;;;;;;;;;4449921;32;20284;-54
2021/10/22 00:15:35;;;;;;;45.27;28.33;;;;;;;;;;4449055;32;20248;-54
2021/10/22 00:18:00;;;;;;;55.00;29.60;;;;;;;;;;4449672;32;20274;-54
2021/10/22 00:20:26;;;;;;;51.73;29.37;;;;;;;;;;4450116;32;20301;-54
2021/10/22 00:22:51;;;;;;;46.83;27.43;;;;;;;;;;4450285;32;20233;-54
2021/10/22 00:25:19;;;;;;;48.33;25.67;;;;;;;;;;4448877;32;20656;-54
2021/10/22 00:27:45;;;;;;;42.33;26.67;;;;;;;;;;4449722;32;20282;-53
2021/10/22 00:30:10;;;;;;;50.33;27.10;;;;;;;;;;4450108;32;20694;-54
2021/10/22 00:32:36;;;;;;;42.07;25.77;;;;;;;;;;4449771;32;20224;-53
2021/10/22 00:35:02;;;;;;;52.03;31.37;;;;;;;;;;4449716;32;20410;-54
2021/10/22 00:37:27;;;;;;;45.57;29.30;;;;;;;;;;4450362;32;20327;-54
2021/10/22 00:39:52;;;;;;;44.33;24.57;;;;;;;;;;4450077;32;20279;-54
2021/10/22 00:42:19;;;;;;;37.70;22.93;;;;;;;;;;4448985;32;20376;-54
2021/10/22 00:44:48;;;;;;;37.33;22.83;;;;;;;;;;4434153;32;20719;-55
2021/10/22 00:47:13;;;;;;;34.27;20.97;;;;;;;;;;4433885;32;20232;-53
2021/10/22 00:49:39;;;;;;;34.00;19.60;;;;;;;;;;4434459;32;20310;-54
2021/10/22 00:52:05;;;;;;;30.37;19.17;;;;;;;;;;4434275;32;20688;-54
2021/10/22 00:54:30;;;;;;;28.07;17.53;;;;;;;;;;4434129;32;20291;-55
2021/10/22 00:56:56;;;;;;;31.50;18.17;;;;;;;;;;4434226;32;20220;-54
2021/10/22 00:59:22;;;;;;;33.37;17.30;;;;;;;;;;4433999;32;20284;-54
2021/10/22 01:01:47;;;;;;;27.70;16.93;;;;;;;;;;4433777;32;20271;-54
2021/10/22 01:04:13;;;;;;;31.77;18.33;;;;;;;;;;4433847;32;20318;-55
2021/10/22 01:06:39;;;;;;;31.70;17.77;;;;;;;;;;4432722;32;20311;-54
2021/10/22 01:09:12;;;;;;;24.90;14.10;;;;;;;;;;4434192;32;20295;-55
2021/10/22 01:11:39;;;;;;;25.27;14.17;;;;;;;;;;4433675;32;20259;-54
2021/10/22 01:14:07;;;;;;;35.20;16.20;;;;;;;;;;4433760;32;20206;-55
2021/10/22 01:16:36;;;;;;;27.50;16.40;;;;;;;;;;4434084;32;20388;-54
2021/10/22 01:19:01;;;;;;;27.80;16.83;;;;;;;;;;4433687;32;20613;-53
2021/10/22 01:21:28;;;;;;;23.53;15.13;;;;;;;;;;4434028;32;20248;-54
2021/10/22 01:23:53;;;;;;;25.77;16.57;;;;;;;;;;4433691;32;20310;-56
2021/10/22 01:26:20;;;;;;;34.30;18.63;;;;;;;;;;4433668;32;20241;-54
2021/10/22 01:28:46;;;;;;;33.57;19.27;;;;;;;;;;4433700;32;20537;-55
2021/10/22 01:31:12;;;;;;;35.57;20.00;;;;;;;;;;4432303;32;20232;-54
2021/10/22 01:33:39;;;;;;;50.53;24.13;;;;;;;;;;4433949;32;20288;-55
2021/10/22 01:36:04;;;;;;;57.57;26.30;;;;;;;;;;4433761;32;20427;-54
2021/10/22 01:38:30;;;;;;;56.17;28.37;;;;;;;;;;4433672;32;20283;-54
2021/10/22 01:40:58;;;;;;;92.93;40.30;;;;;;;;;;4433328;32;20777;-54
2021/10/22 01:43:25;;;;;;;99.47;41.50;;;;;;;;;;4433547;32;20848;-54
2021/10/22 01:45:52;;;;;;;98.37;40.17;;;;;;;;;;4433608;32;20201;-53
2021/10/22 01:48:18;;;;;;;54.20;29.67;;;;;;;;;;4433207;32;20652;-55
2021/10/22 01:50:44;;;;;;;44.80;25.50;;;;;;;;;;4432332;32;20322;-55
2021/10/22 01:53:11;;;;;;;50.17;28.50;;;;;;;;;;4433112;32;20843;-54
2021/10/22 01:55:37;;;;;;;48.20;27.03;;;;;;;;;;4433532;32;20232;-54
2021/10/22 01:58:02;;;;;;;48.70;26.33;;;;;;;;;;4432993;32;20695;-53
2021/10/22 02:00:29;;;;;;;45.53;25.40;;;;;;;;;;4433345;32;20315;-54
2021/10/22 02:02:55;;;;;;;49.70;25.40;;;;;;;;;;4432594;32;20240;-54
2021/10/22 02:05:20;;;;;;;54.30;28.00;;;;;;;;;;4431977;32;20311;-54
2021/10/22 02:07:46;;;;;;;48.00;28.17;;;;;;;;;;4431696;32;20319;-54
2021/10/22 02:10:11;;;;;;;51.10;28.03;;;;;;;;;;4432996;32;20697;-53
2021/10/22 02:12:38;;;;;;;71.03;36.30;;;;;;;;;;4431752;32;20332;-53
2021/10/22 02:15:04;;;;;;;58.40;30.13;;;;;;;;;;4433067;32;20614;-53
2021/10/22 02:17:31;;;;;;;51.23;27.57;;;;;;;;;;4433056;32;20766;-54
2021/10/22 02:19:57;;;;;;;53.67;29.63;;;;;;;;;;4431778;32;20669;-54
2021/10/22 02:22:22;;;;;;;74.27;41.53;;;;;;;;;;4432920;32;20279;-54
2021/10/22 02:24:48;;;;;;;72.07;42.07;;;;;;;;;;4431673;32;20876;-54
2021/10/22 02:27:13;;;;;;;72.60;41.93;;;;;;;;;;4432837;32;20261;-54
2021/10/22 02:29:38;;;;;;;58.20;35.30;;;;;;;;;;4433451;32;20376;-54
2021/10/22 02:32:04;;;;;;;60.33;31.33;;;;;;;;;;4432763;32;20232;-55
2021/10/22 02:34:30;;;;;;;68.70;35.17;;;;;;;;;;4433450;32;20348;-55
2021/10/22 02:36:55;;;;;;;88.87;40.63;;;;;;;;;;4432509;32;20292;-54
2021/10/22 02:39:21;;;;;;;62.27;33.33;;;;;;;;;;4432885;32;20280;-54
2021/10/22 02:41:46;;;;;;;63.23;36.10;;;;;;;;;;4431744;32;20232;-54
2021/10/22 02:44:12;;;;;;;75.97;38.83;;;;;;;;;;4432819;32;20309;-53
2021/10/22 02:46:38;;;;;;;72.57;41.53;;;;;;;;;;4433084;32;20266;-54
2021/10/22 02:49:04;;;;;;;70.97;39.27;;;;;;;;;;4432833;32;20280;-54
2021/10/22 02:51:30;;;;;;;81.37;42.00;;;;;;;;;;4433209;32;20221;-55
2021/10/22 02:53:55;;;;;;;88.87;41.43;;;;;;;;;;4432871;32;20303;-54
2021/10/22 02:56:21;;;;;;;83.83;38.27;;;;;;;;;;4432898;32;20255;-54
2021/10/22 02:58:47;;;;;;;57.30;31.60;;;;;;;;;;4433395;32;20315;-56
2021/10/22 03:01:12;;;;;;;63.70;29.57;;;;;;;;;;4432046;32;20370;-54
2021/10/22 03:03:38;;;;;;;60.63;31.63;;;;;;;;;;4433141;32;20276;-54
2021/10/22 03:06:03;;;;;;;69.20;35.97;;;;;;;;;;4432895;32;20275;-54
2021/10/22 03:08:28;;;;;;;76.63;35.63;;;;;;;;;;4433162;32;20276;-53
2021/10/22 03:10:54;;;;;;;56.67;32.30;;;;;;;;;;4441275;32;20325;-53
2021/10/22 03:13:19;;;;;;;53.70;31.90;;;;;;;;;;4448512;32;20298;-54
2021/10/22 03:15:45;;;;;;;55.50;30.90;;;;;;;;;;4451361;32;20683;-53
2021/10/22 03:18:10;;;;;;;60.93;30.07;;;;;;;;;;4450990;32;20287;-54
2021/10/22 03:20:36;;;;;;;56.57;29.13;;;;;;;;;;4451489;32;20329;-53
2021/10/22 03:23:04;;;;;;;47.83;26.40;;;;;;;;;;4449441;32;20240;-54
2021/10/22 03:25:30;;;;;;;43.83;24.80;;;;;;;;;;4451178;32;20204;-55
2021/10/22 03:28:02;;;;;;;41.10;23.87;;;;;;;;;;4450836;32;20306;-54
2021/10/22 03:30:27;;;;;;;48.40;25.87;;;;;;;;;;4450793;32;20692;-54
2021/10/22 03:32:52;;;;;;;63.30;29.20;;;;;;;;;;4438238;32;20255;-54
2021/10/22 03:35:18;;;;;;;49.17;26.73;;;;;;;;;;4434031;32;20339;-54
2021/10/22 03:37:43;;;;;;;46.53;24.80;;;;;;;;;;4435255;32;20240;-54
2021/10/22 03:40:10;;;;;;;54.67;26.33;;;;;;;;;;4434947;32;20303;-54
2021/10/22 03:42:35;;;;;;;44.63;25.40;;;;;;;;;;4435192;32;20225;-54
2021/10/22 03:45:00;;;;;;;58.23;30.53;;;;;;;;;;4435110;32;20271;-54
2021/10/22 03:47:27;;;;;;;67.47;32.10;;;;;;;;;;4434920;32;20299;-54
2021/10/22 03:49:53;;;;;;;54.37;27.57;;;;;;;;;;4434995;32;20200;-55
2021/10/22 03:52:18;;;;;;;50.47;26.40;;;;;;;;;;4435208;32;20646;-54
2021/10/22 03:54:43;;;;;;;49.70;27.80;;;;;;;;;;4435164;32;20332;-54
2021/10/22 03:57:09;;;;;;;52.73;26.93;;;;;;;;;;4434892;32;20311;-54
2021/10/22 03:59:34;;;;;;;51.73;27.17;;;;;;;;;;4434846;32;20299;-54
2021/10/22 04:02:00;;;;;;;62.37;29.47;;;;;;;;;;4434129;32;20256;-54
2021/10/22 04:04:28;;;;;;;48.13;26.03;;;;;;;;;;4434775;32;20295;-55
2021/10/22 04:06:56;;;;;;;53.07;27.33;;;;;;;;;;4433572;32;20367;-54
2021/10/22 04:09:22;;;;;;;56.33;28.27;;;;;;;;;;4434600;32;20291;-55
2021/10/22 04:11:47;;;;;;;46.57;28.77;;;;;;;;;;4434735;32;20251;-53
2021/10/22 04:14:13;;;;;;;54.23;28.43;;;;;;;;;;4434780;32;20644;-54
2021/10/22 04:16:38;;;;;;;65.87;32.10;;;;;;;;;;4435023;32;20675;-54
2021/10/22 04:19:04;;;;;;;65.47;31.37;;;;;;;;;;4434889;32;20702;-54
2021/10/22 04:21:29;;;;;;;58.60;28.20;;;;;;;;;;4434847;32;20364;-54
2021/10/22 04:23:55;;;;;;;47.10;26.00;;;;;;;;;;4434414;32;20302;-53
2021/10/22 04:26:20;;;;;;;54.20;26.83;;;;;;;;;;4434159;32;20613;-54
2021/10/22 04:28:46;;;;;;;48.60;27.20;;;;;;;;;;4434339;32;20339;-54
2021/10/22 04:31:11;;;;;;;46.07;27.67;;;;;;;;;;4434261;32;20550;-54
2021/10/22 04:33:38;;;;;;;56.73;31.80;;;;;;;;;;4434697;32;20344;-54
2021/10/22 04:36:06;;;;;;;63.33;30.80;;;;;;;;;;4434318;32;20212;-54
2021/10/22 04:41:16;;;;;;;51.40;30.17;;;;;;;;;;4433934;32;20258;-54
2021/10/22 04:43:41;;;;;;;62.47;31.20;;;;;;;;;;4434463;32;20681;-54
2021/10/22 04:46:06;;;;;;;57.03;30.33;;;;;;;;;;4434034;32;20665;-54
2021/10/22 04:48:32;;;;;;;58.47;33.03;;;;;;;;;;4434435;32;20349;-54
2021/10/22 04:50:57;;;;;;;69.33;36.47;;;;;;;;;;4432744;32;20307;-53
2021/10/22 04:53:25;;;;;;;63.80;37.53;;;;;;;;;;4434250;32;20362;-54
2021/10/22 04:55:51;;;;;;;87.17;39.50;;;;;;;;;;4432812;32;20676;-55
2021/10/22 04:58:16;;;;;;;89.30;43.80;;;;;;;;;;4433946;32;20318;-54
2021/10/22 05:00:42;;;;;;;89.70;42.10;;;;;;;;;;4433982;32;20620;-54
2021/10/22 05:03:07;;;;;;;93.07;42.97;;;;;;;;;;4433220;32;20300;-53
2021/10/22 05:05:33;;;;;;;92.63;43.40;;;;;;;;;;4433846;32;20407;-54
2021/10/22 05:07:58;;;;;;;97.00;42.73;;;;;;;;;;4432664;32;20747;-53
2021/10/22 05:10:24;;;;;;;73.90;37.33;;;;;;;;;;4440624;32;20693;-54
2021/10/22 05:12:49;;;;;;;72.13;37.27;;;;;;;;;;4437955;32;20300;-55
2021/10/22 05:15:15;;;;;;;86.43;37.67;;;;;;;;;;4432591;32;20327;-55
2021/10/22 05:17:41;;;;;;;79.97;36.27;;;;;;;;;;4433936;32;20597;-54
2021/10/22 05:20:09;;;;;;;69.37;36.07;;;;;;;;;;4433936;32;20670;-54
2021/10/22 05:22:36;;;;;;;86.83;39.23;;;;;;;;;;4433681;32;20267;-54
2021/10/22 05:25:03;;;;;;;94.80;41.33;;;;;;;;;;4431974;32;20267;-54
2021/10/22 05:27:29;;;;;;;99.17;40.93;;;;;;;;;;4433540;32;20752;-54
2021/10/22 05:29:54;;;;;;;103.23;47.37;;;;;;;;;;4433634;32;20280;-53
2021/10/22 05:32:20;;;;;;;114.87;48.60;;;;;;;;;;4433418;32;20294;-54
2021/10/22 05:34:45;;;;;;;109.57;47.80;;;;;;;;;;4433584;32;20279;-54
2021/10/22 05:37:11;;;;;;;112.33;49.43;;;;;;;;;;4432437;32;20252;-53
2021/10/22 05:39:36;;;;;;;104.47;43.90;;;;;;;;;;4433483;32;20272;-54
2021/10/22 05:42:02;;;;;;;83.07;37.53;;;;;;;;;;4430992;32;20248;-53
2021/10/22 05:44:27;;;;;;;86.07;37.37;;;;;;;;;;4432119;32;20304;-56
2021/10/22 05:46:56;;;;;;;56.77;28.80;;;;;;;;;;4431469;32;20728;-54
2021/10/22 05:49:23;;;;;;;48.17;25.67;;;;;;;;;;4431836;32;20277;-54
2021/10/22 05:51:50;;;;;;;49.07;26.40;;;;;;;;;;4430787;32;20310;-53
2021/10/22 05:54:15;;;;;;;53.93;28.20;;;;;;;;;;4432604;32;20250;-53
2021/10/22 05:56:41;;;;;;;55.80;27.70;;;;;;;;;;4433149;32;20378;-54
2021/10/22 05:59:07;;;;;;;55.30;28.30;;;;;;;;;;4433213;32;20318;-53
2021/10/22 06:01:32;;;;;;;50.07;26.80;;;;;;;;;;4432290;32;20286;-53
2021/10/22 06:03:58;;;;;;;56.63;29.63;;;;;;;;;;4433127;32;20610;-54
2021/10/22 06:06:23;;;;;;;67.23;30.70;;;;;;;;;;4432998;32;20248;-53
2021/10/22 06:08:50;;;;;;;71.07;30.53;;;;;;;;;;4432966;32;20367;-54
2021/10/22 06:11:16;;;;;;;53.10;27.47;;;;;;;;;;4443348;32;20258;-54
2021/10/22 06:13:42;;;;;;;51.23;29.20;;;;;;;;;;4433151;32;20296;-54
2021/10/22 06:16:10;;;;;;;50.83;26.80;;;;;;;;;;4431559;32;20613;-53
2021/10/22 06:18:44;;;;;;;56.50;27.10;;;;;;;;;;4433130;32;20265;-53
2021/10/22 06:21:17;;;;;;;53.87;27.63;;;;;;;;;;4432561;32;20315;-54
2021/10/22 06:23:55;;;;;;;51.03;27.13;;;;;;;;;;4431676;32;20402;-54
2021/10/22 06:26:25;;;;;;;45.40;25.97;;;;;;;;;;4432916;32;20224;-53
2021/10/22 06:28:52;;;;;;;52.10;26.00;;;;;;;;;;4432987;32;20225;-54
2021/10/22 06:31:17;;;;;;;60.57;28.07;;;;;;;;;;4432857;32;20339;-54
2021/10/22 06:33:43;;;;;;;48.23;26.97;;;;;;;;;;4432981;32;20275;-53
2021/10/22 06:36:09;;;;;;;50.10;28.03;;;;;;;;;;4432717;32;20359;-53
2021/10/22 06:38:34;;;;;;;56.00;27.77;;;;;;;;;;4432758;32;20350;-55
2021/10/22 06:41:00;;;;;;;52.33;28.37;;;;;;;;;;4432477;32;20779;-53
2021/10/22 06:43:26;;;;;;;57.80;32.17;;;;;;;;;;4431827;32;20300;-54
2021/10/22 06:45:52;;;;;;;56.47;28.53;;;;;;;;;;4432628;32;20370;-53
2021/10/22 06:48:18;;;;;;;60.60;33.00;;;;;;;;;;4434634;32;20259;-55
2021/10/22 06:50:44;;;;;;;59.23;32.13;;;;;;;;;;4435923;32;20284;-53
2021/10/22 06:53:10;;;;;;;53.83;29.17;;;;;;;;;;4435504;32;20301;-54
2021/10/22 06:55:37;;;;;;;65.77;35.20;;;;;;;;;;4435708;32;20300;-54
2021/10/22 06:58:04;;;;;;;60.57;32.67;;;;;;;;;;4435485;32;20229;-53
2021/10/22 07:00:30;;;;;;;65.83;35.73;;;;;;;;;;4435650;32;20641;-53
2021/10/22 07:02:56;;;;;;;70.37;35.10;;;;;;;;;;4435010;32;20240;-54
2021/10/22 07:07:55;;;;;;;77.00;38.67;;;;;;;;;;4435700;32;20259;-53
2021/10/22 07:10:21;;;;;;;57.93;32.63;;;;;;;;;;4442057;32;20278;-55
2021/10/22 07:12:47;;;;;;;44.57;26.23;;;;;;;;;;4439948;32;20247;-54
2021/10/22 07:15:14;;;;;;;36.37;21.67;;;;;;;;;;4435874;32;20287;-54
2021/10/22 07:17:39;;;;;;;43.53;23.30;;;;;;;;;;4434089;32;20785;-54
2021/10/22 07:20:07;;;;;;;38.43;21.33;;;;;;;;;;4435243;32;20263;-53
2021/10/22 07:22:34;;;;;;;40.63;21.73;;;;;;;;;;4435370;32;20698;-53
2021/10/22 07:25:00;;;;;;;42.93;21.23;;;;;;;;;;4435534;32;20321;-54
2021/10/22 07:27:25;;;;;;;43.77;23.87;;;;;;;;;;4435542;32;20236;-54
2021/10/22 07:29:51;;;;;;;30.70;18.37;;;;;;;;;;4435771;32;20342;-54
2021/10/22 07:32:17;;;;;;;30.50;18.37;;;;;;;;;;4435280;32;20233;-54
2021/10/22 07:34:42;;;;;;;36.33;17.67;;;;;;;;;;4435471;32;20620;-54
2021/10/22 07:37:08;;;;;;;29.90;18.30;;;;;;;;;;4435350;32;20407;-55
2021/10/22 07:39:34;;;;;;;33.30;19.63;;;;;;;;;;4435764;32;20287;-54
2021/10/22 07:42:01;;;;;;;32.20;20.40;;;;;;;;;;4435017;32;20256;-53
2021/10/22 07:44:26;;;;;;;33.63;20.07;;;;;;;;;;4434016;32;20365;-54
2021/10/22 07:46:53;;;;;;;44.37;26.37;;;;;;;;;;4434030;32;20288;-53
2021/10/22 07:49:18;;;;;;;36.23;21.60;;;;;;;;;;4435151;32;20298;-53
2021/10/22 07:51:44;;;;;;;31.57;22.13;;;;;;;;;;4435374;32;20445;-54
2021/10/22 07:54:10;;;;;;;38.93;24.67;;;;;;;;;;4434466;32;20377;-54
2021/10/22 07:56:36;;;;;;;42.97;23.53;;;;;;;;;;4433852;32;20591;-54
2021/10/22 07:59:04;;;;;;;41.40;25.00;;;;;;;;;;4434128;32;20310;-54
2021/10/22 08:01:30;;;;;;;52.50;27.20;;;;;;;;;;4434322;32;20256;-53
2021/10/22 08:03:55;;;;;;;42.17;25.13;;;;;;;;;;4435406;32;20251;-54
2021/10/22 08:06:21;;;;;;;48.00;27.43;;;;;;;;;;4434924;32;20361;-54
2021/10/22 08:08:47;;;;;;;38.27;25.07;;;;;;;;;;4435038;32;20284;-54
2021/10/22 08:11:14;;;;;;;50.80;29.43;;;;;;;;;;4445471;32;20311;-54
2021/10/22 08:13:40;;;;;;;48.00;26.80;;;;;;;;;;4434982;32;20295;-53
2021/10/22 08:16:05;;;;;;;53.43;29.30;;;;;;;;;;4435042;32;20623;-53
2021/10/22 08:18:32;;;;;;;47.83;28.77;;;;;;;;;;4435057;32;20291;-55
2021/10/22 08:21:02;;;;;;;50.37;30.87;;;;;;;;;;4420857;32;20617;-54
2021/10/22 08:23:28;;;;;;;53.63;32.00;;;;;;;;;;4434109;32;20213;-54
2021/10/22 08:25:53;;;;;;;43.37;29.47;;;;;;;;;;4434692;32;20291;-54
2021/10/22 08:28:20;;;;;;;63.03;32.43;;;;;;;;;;4434511;32;20329;-55
2021/10/22 08:30:54;;;;;;;56.37;34.07;;;;;;;;;;4433129;32;20296;-54
2021/10/22 08:33:20;;;;;;;54.80;33.53;;;;;;;;;;4434763;32;20714;-54
2021/10/22 08:35:46;;;;;;;60.23;34.80;;;;;;;;;;4435020;32;20288;-54
2021/10/22 08:38:12;;;;;;;59.77;34.77;;;;;;;;;;4434290;32;20302;-54
2021/10/22 08:40:37;;;;;;;68.00;36.13;;;;;;;;;;4433256;32;20315;-53
2021/10/22 08:43:03;;;;;;;59.57;38.50;;;;;;;;;;4434333;32;20670;-52
2021/10/22 08:45:32;;;;;;;58.43;33.70;;;;;;;;;;4434481;32;20300;-54
2021/10/22 08:47:57;;;;;;;54.07;31.53;;;;;;;;;;4434093;32;20370;-54
2021/10/22 08:50:22;;;;;;;59.00;30.87;;;;;;;;;;4434280;32;20288;-54
2021/10/22 08:52:50;;;;;;;55.03;33.27;;;;;;;;;;4434521;32;20299;-53
2021/10/22 08:55:17;;;;;;;73.63;43.30;;;;;;;;;;4433338;32;20321;-54
2021/10/22 08:57:48;;;;;;;84.57;50.07;;;;;;;;;;4431852;32;20715;-54
2021/10/22 09:00:17;;;;;;;86.60;48.87;;;;;;;;;;4431887;32;20232;-53
2021/10/22 09:02:45;;;;;;;70.33;39.87;;;;;;;;;;4431658;32;20781;-53
2021/10/22 09:05:16;;;;;;;66.90;39.60;;;;;;;;;;4430860;32;20260;-53
2021/10/22 09:07:46;;;;;;;107.37;58.80;;;;;;;;;;4432405;32;20241;-53
2021/10/22 09:10:21;;;;;;;122.30;62.80;;;;;;;;;;4432729;32;20688;-54
2021/10/22 09:12:47;;;;;;;144.50;81.87;;;;;;;;;;4433505;32;20296;-54
2021/10/22 09:15:16;;;;;;;110.43;61.47;;;;;;;;;;4434363;32;20201;-54
2021/10/22 09:17:42;;;;;;;155.90;85.63;;;;;;;;;;4434101;32;20236;-54
2021/10/22 09:20:12;;;;;;;150.83;87.43;;;;;;;;;;4433661;32;20594;-54
2021/10/22 09:22:39;;;;;;;136.77;77.67;;;;;;;;;;4433913;32;20328;-53
2021/10/22 09:25:10;;;;;;;143.53;82.70;;;;;;;;;;4433211;32;20239;-54
2021/10/22 09:27:41;;;;;;;183.87;101.70;;;;;;;;;;4433475;32;20308;-54
2021/10/22 09:30:11;;;;;;;159.27;89.03;;;;;;;;;;4433714;32;20629;-54
2021/10/22 09:32:47;;;;;;;138.57;77.47;;;;;;;;;;4433766;32;20607;-53
2021/10/22 09:35:13;;;;;;;123.87;67.00;;;;;;;;;;4433285;32;20615;-53
2021/10/22 09:37:39;;;;;;;119.30;71.20;;;;;;;;;;4433846;32;20216;-53
2021/10/22 09:40:05;;;;;;;122.30;67.60;;;;;;;;;;4433383;32;20715;-54
2021/10/22 09:42:30;;;;;;;109.33;63.33;;;;;;;;;;4433882;32;20576;-55
2021/10/22 09:44:56;;;;;;;115.20;66.07;;;;;;;;;;4433777;32;20305;-54
2021/10/22 09:47:21;;;;;;;107.57;63.27;;;;;;;;;;4432929;32;20237;-53
2021/10/22 09:49:53;;;;;;;123.20;65.37;;;;;;;;;;4432317;32;20280;-53
2021/10/22 09:52:21;;;;;;;109.90;65.37;;;;;;;;;;4432339;32;20274;-53
2021/10/22 09:55:06;;;;;;;105.00;64.87;;;;;;;;;;4432827;32;20345;-54
2021/10/22 09:57:32;;;;;;;111.40;65.20;;;;;;;;;;4433350;32;20328;-54
2021/10/22 10:00:08;;;;;;;97.53;57.63;;;;;;;;;;4432529;32;20307;-55
2021/10/22 10:02:37;;;;;;;89.33;48.60;;;;;;;;;;4430833;32;20336;-53
2021/10/22 10:05:08;;;;;;;76.93;48.97;;;;;;;;;;4432262;32;20212;-54
2021/10/22 10:07:42;;;;;;;83.20;51.20;;;;;;;;;;4432663;32;20274;-54
2021/10/22 10:10:09;;;;;;;87.37;53.90;;;;;;;;;;4437921;32;20213;-54
2021/10/22 10:12:37;;;;;;;85.27;52.60;;;;;;;;;;4438182;32;20259;-54
2021/10/22 10:15:09;;;;;;;70.80;41.27;;;;;;;;;;4432761;32;20198;-54
2021/10/22 10:17:55;;;;;;;63.37;37.40;;;;;;;;;;4433066;32;20225;-54
2021/10/22 10:20:25;;;;;;;54.17;35.40;;;;;;;;;;4433159;32;20280;-54
2021/10/22 10:22:52;;;;;;;46.17;29.80;;;;;;;;;;4433118;32;20249;-54
2021/10/22 10:25:22;;;;;;;56.93;38.23;;;;;;;;;;4433022;32;20297;-54
2021/10/22 10:27:53;;;;;;;50.87;31.43;;;;;;;;;;4433461;32;20224;-54
2021/10/22 10:30:28;;;;;;;43.67;26.57;;;;;;;;;;4431969;32;20330;-54
2021/10/22 10:32:54;;;;;;;40.30;25.97;;;;;;;;;;4433669;32;20228;-55
2021/10/22 10:35:19;;;;;;;47.07;30.27;;;;;;;;;;4433285;32;20593;-56
2021/10/22 10:37:49;;;;;;;45.37;29.20;;;;;;;;;;4433357;32;20631;-54
2021/10/22 10:40:27;;;;;;;45.13;28.07;;;;;;;;;;4433357;32;20241;-55
2021/10/22 10:42:58;;;;;;;41.10;28.63;;;;;;;;;;4433283;32;20216;-54
2021/10/22 10:45:26;;;;;;;42.73;29.43;;;;;;;;;;4433276;32;20351;-55
2021/10/22 10:47:52;;;;;;;81.27;45.23;;;;;;;;;;4432643;32;20282;-54
2021/10/22 10:50:25;;;;;;;62.20;33.23;;;;;;;;;;4431426;32;20315;-54
2021/10/22 10:52:56;;;;;;;42.67;25.00;;;;;;;;;;4430112;32;20257;-54
2021/10/22 10:55:40;;;;;;;31.70;22.67;;;;;;;;;;4431568;32;20680;-55
2021/10/22 10:58:08;;;;;;;31.43;21.10;;;;;;;;;;4429672;32;20623;-54
2021/10/22 11:00:40;;;;;;;32.23;22.53;;;;;;;;;;4430580;32;20247;-54
2021/10/22 11:03:08;;;;;;;33.53;21.83;;;;;;;;;;4430672;32;20254;-54
2021/10/22 11:05:55;;;;;;;30.83;20.93;;;;;;;;;;4431440;32;20304;-54
2021/10/22 11:08:33;;;;;;;35.60;21.23;;;;;;;;;;4432078;32;20227;-54
2021/10/22 11:11:12;;;;;;;34.13;21.33;;;;;;;;;;4441488;32;20734;-55
2021/10/22 11:13:46;;;;;;;34.38;21.75;;;;;;;;;;4438407;32;20294;-54
2021/10/22 11:16:40;;;;;;;32.30;21.17;;;;;;;;;;4430532;32;20319;-55
2021/10/22 11:19:06;;;;;;;37.42;21.75;;;;;;;;;;4430610;32;20253;-54
2021/10/22 11:21:34;;;;;;;38.13;23.80;;;;;;;;;;4430815;32;20347;-54
2021/10/22 11:24:01;;;;;;;30.90;22.70;;;;;;;;;;4430630;32;20775;-55
2021/10/22 11:26:28;;;;;;;33.25;21.73;;;;;;;;;;4432038;32;20229;-54
2021/10/22 11:28:59;;;;;;;117.85;56.15;;;;;;;;;;4432281;32;20268;-54
2021/10/22 11:31:41;;;;;;;44.40;26.45;;;;;;;;;;4432294;32;20233;-55
2021/10/22 11:34:18;;;;;;;37.65;23.25;;;;;;;;;;4432602;32;20311;-54
2021/10/22 11:36:55;;;;;;;38.53;23.98;;;;;;;;;;4434624;32;20631;-54
2021/10/22 11:39:27;;;;;;;29.77;20.52;;;;;;;;;;4433903;32;20196;-54
2021/10/22 11:42:05;;;;;;;42.80;25.07;;;;;;;;;;4432376;32;20220;-54
2021/10/22 11:44:35;;;;;;;64.32;30.40;;;;;;;;;;4433889;32;20197;-53
2021/10/22 11:47:01;;;;;;;33.85;22.52;;;;;;;;;;4433492;32;20343;-54
2021/10/22 11:49:30;;;;;;;43.60;31.33;;;;;;;;;;4433377;32;20335;-54
2021/10/22 11:51:57;;;;;;;59.08;32.58;;;;;;;;;;4434578;32;20225;-54
2021/10/22 11:54:36;;;;;;;134.43;64.22;;;;;;;;;;4434198;32;20237;-54
2021/10/22 11:57:14;;;;;;;41.88;25.67;;;;;;;;;;4433459;32;20255;-54
2021/10/22 11:59:58;;;;;;;39.70;27.25;;;;;;;;;;4434201;32;20272;-55
2021/10/22 12:02:26;;;;;;;43.10;25.80;;;;;;;;;;4427726;32;20535;-55
2021/10/22 12:04:56;;;;;;;34.35;24.15;;;;;;;;;;4433117;32;20309;-55
2021/10/22 12:07:21;;;;;;;42.67;25.70;;;;;;;;;;4434169;32;20305;-54
2021/10/22 12:09:51;;;;;;;39.63;25.90;;;;;;;;;;4432937;32;20314;-54
2021/10/22 12:12:17;;;;;;;38.83;24.50;;;;;;;;;;4434201;32;20229;-54
2021/10/22 12:14:45;;;;;;;34.03;25.30;;;;;;;;;;4434383;32;20302;-54
2021/10/22 12:17:14;;;;;;;34.40;22.80;;;;;;;;;;4434192;32;20595;-55
2021/10/22 12:19:42;;;;;;;72.57;43.33;;;;;;;;;;4434169;32;20663;-54
2021/10/22 12:22:08;;;;;;;33.03;21.13;;;;;;;;;;4434116;32;20304;-54
2021/10/22 12:24:39;;;;;;;29.30;20.50;;;;;;;;;;4434917;32;20719;-55
2021/10/22 12:27:09;;;;;;;57.35;32.58;;;;;;;;;;4433970;32;20228;-54
2021/10/22 12:29:55;;;;;;;35.95;23.15;;;;;;;;;;4434450;32;20209;-54
2021/10/22 12:32:30;;;;;;;313.12;150.18;;;;;;;;;;4434146;32;20709;-54
2021/10/22 12:34:56;;;;;;;59.70;33.85;;;;;;;;;;4434267;32;20347;-54
2021/10/22 12:37:40;;;;;;;31.80;21.25;;;;;;;;;;4433677;32;20638;-54
2021/10/22 12:40:13;;;;;;;31.98;20.88;;;;;;;;;;4433795;32;20846;-55
2021/10/22 12:42:39;;;;;;;33.20;21.37;;;;;;;;;;4433749;32;20272;-55
2021/10/22 12:45:24;;;;;;;26.90;19.15;;;;;;;;;;4433603;32;20200;-55
2021/10/22 12:47:50;;;;;;;28.75;19.85;;;;;;;;;;4434024;32;20360;-56
2021/10/22 12:50:24;;;;;;;27.90;20.12;;;;;;;;;;4433628;32;20279;-55
2021/10/22 12:52:58;;;;;;;28.62;19.35;;;;;;;;;;4432814;32;20647;-55
2021/10/22 12:55:24;;;;;;;34.33;20.57;;;;;;;;;;4433402;32;20616;-55
2021/10/22 12:57:49;;;;;;;32.30;21.23;;;;;;;;;;4433996;32;20349;-54
2021/10/22 13:00:21;;;;;;;70.73;45.77;;;;;;;;;;4433828;32;20295;-56
2021/10/22 13:02:47;;;;;;;34.27;23.60;;;;;;;;;;4433149;32;20758;-55
2021/10/22 13:05:20;;;;;;;23.40;17.27;;;;;;;;;;4432395;32;20295;-54
2021/10/22 13:08:00;;;;;;;31.23;19.47;;;;;;;;;;4433255;32;20293;-55
2021/10/22 13:10:46;;;;;;;24.40;17.40;;;;;;;;;;4440300;32;20590;-54
2021/10/22 13:20:59;;;;;;;29.48;18.30;;;;;;;;;;4433077;32;20310;-54
2021/10/22 13:23:25;;;;;;;31.20;19.23;;;;;;;;;;4432943;32;20308;-56
2021/10/22 13:25:51;;;;;;;28.90;18.30;;;;;;;;;;4431573;32;20342;-54
2021/10/22 13:28:22;;;;;;;27.48;19.80;;;;;;;;;;4432987;32;20606;-55
2021/10/22 13:31:03;;;;;;;25.88;19.17;;;;;;;;;;4433150;32;20216;-55
2021/10/22 13:33:29;;;;;;;26.80;16.98;;;;;;;;;;4433025;32;20575;-54
2021/10/22 13:35:56;;;;;;;26.90;17.60;;;;;;;;;;4432819;32;20335;-54
2021/10/22 13:38:21;;;;;;;23.60;15.45;;;;;;;;;;4432864;32;20283;-55
2021/10/22 13:40:47;;;;;;;22.13;14.50;;;;;;;;;;4432871;32;20306;-54
2021/10/22 13:43:12;;;;;;;23.23;15.82;;;;;;;;;;4432420;32;20590;-55
2021/10/22 13:45:40;;;;;;;24.30;16.73;;;;;;;;;;4433022;32;20334;-56
2021/10/22 13:48:08;;;;;;;28.12;17.37;;;;;;;;;;4432527;32;20256;-55
2021/10/22 13:50:33;;;;;;;28.62;16.20;;;;;;;;;;4432602;32;20277;-55
2021/10/22 13:52:59;;;;;;;24.20;17.95;;;;;;;;;;4432578;32;20331;-55
2021/10/22 13:55:24;;;;;;;36.30;20.95;;;;;;;;;;4432613;32;20592;-54
2021/10/22 13:57:50;;;;;;;35.22;19.23;;;;;;;;;;4431004;32;20355;-55
2021/10/22 14:00:17;;;;;;;29.08;17.45;;;;;;;;;;4431351;32;20604;-54
2021/10/22 14:02:43;;;;;;;26.02;17.50;;;;;;;;;;4432535;32;20233;-54
2021/10/22 14:05:09;;;;;;;22.87;16.85;;;;;;;;;;4433619;32;20297;-56
2021/10/22 14:07:34;;;;;;;26.87;18.83;;;;;;;;;;4431772;32;20638;-54
2021/10/22 14:10:00;;;;;;;27.23;18.17;;;;;;;;;;4437564;32;20309;-56
2021/10/22 14:30:34;;;;;;;29.23;19.67;;;;;;;;;;4433005;32;20219;-54
2021/10/22 14:33:00;;;;;;;38.50;21.95;;;;;;;;;;4432048;32;20291;-54
2021/10/22 14:35:26;;;;;;;28.58;20.23;;;;;;;;;;4432839;32;20319;-55
2021/10/22 14:37:51;;;;;;;35.08;20.92;;;;;;;;;;4432773;32;20281;-54
2021/10/22 14:40:20;;;;;;;37.05;24.12;;;;;;;;;;4432973;32;20339;-54
2021/10/22 14:42:45;;;;;;;40.47;22.90;;;;;;;;;;4431268;32;20267;-54
2021/10/22 14:45:24;;;;;;;42.47;24.58;;;;;;;;;;4432355;32;20391;-55
2021/10/22 14:48:01;;;;;;;39.50;25.27;;;;;;;;;;4432028;32;20686;-54
2021/10/22 14:50:28;;;;;;;33.78;22.33;;;;;;;;;;4432595;32;20224;-54